sensor_id;sensor_type;location;lat;lon;timestamp;P1;durP1;ratioP1;P2;durP2;ratioP2
9819;SDS011;4949;48.482;9.206;2022-07-09T00:03:32;3.23;;;3.03;;
9819;SDS011;4949;48.482;9.206;2022-07-09T00:08:33;4.10;;;3.13;;
9819;SDS011;4949;48.482;9.206;2022-07-09T00:13:35;3.50;;;2.97;;
9819;SDS011;4949;48.482;9.206;2022-07-09T00:18:36;3.50;;;3.20;;
9819;SDS011;4949;48.482;9.206;2022-07-09T00:23:38;3.90;;;3.50;;
9819;SDS011;4949;48.482;9.206;2022-07-09T00:28:41;4.20;;;3.03;;
9819;SDS011;4949;48.482;9.206;2022-07-09T00:33:44;4.27;;;3.97;;
9819;SDS011;4949;48.482;9.206;2022-07-09T00:38:44;5.07;;;4.03;;
9819;SDS011;4949;48.482;9.206;2022-07-09T00:43:45;4.53;;;3.50;;
9819;SDS011;4949;48.482;9.206;2022-07-09T00:48:49;3.60;;;3.30;;
9819;SDS011;4949;48.482;9.206;2022-07-09T00:53:49;4.80;;;3.23;;
9819;SDS011;4949;48.482;9.206;2022-07-09T00:58:52;4.10;;;3.10;;
9819;SDS011;4949;48.482;9.206;2022-07-09T01:03:52;3.00;;;2.70;;
9819;SDS011;4949;48.482;9.206;2022-07-09T01:08:53;3.67;;;3.40;;
9819;SDS011;4949;48.482;9.206;2022-07-09T01:13:53;3.43;;;3.10;;
9819;SDS011;4949;48.482;9.206;2022-07-09T01:18:54;4.43;;;3.60;;
9819;SDS011;4949;48.482;9.206;2022-07-09T01:23:57;5.80;;;3.17;;
9819;SDS011;4949;48.482;9.206;2022-07-09T01:28:57;3.50;;;3.20;;
9819;SDS011;4949;48.482;9.206;2022-07-09T01:33:58;5.07;;;3.60;;
9819;SDS011;4949;48.482;9.206;2022-07-09T01:38:58;3.23;;;2.93;;
9819;SDS011;4949;48.482;9.206;2022-07-09T01:44:01;3.43;;;3.20;;
9819;SDS011;4949;48.482;9.206;2022-07-09T01:49:01;4.80;;;3.30;;
9819;SDS011;4949;48.482;9.206;2022-07-09T01:54:04;4.00;;;3.23;;
9819;SDS011;4949;48.482;9.206;2022-07-09T01:59:05;5.13;;;3.87;;
9819;SDS011;4949;48.482;9.206;2022-07-09T02:04:05;4.38;;;3.20;;
9819;SDS011;4949;48.482;9.206;2022-07-09T02:09:08;3.58;;;3.05;;
9819;SDS011;4949;48.482;9.206;2022-07-09T02:14:08;3.37;;;3.07;;
9819;SDS011;4949;48.482;9.206;2022-07-09T02:19:08;3.27;;;2.93;;
9819;SDS011;4949;48.482;9.206;2022-07-09T02:24:11;5.70;;;3.03;;
9819;SDS011;4949;48.482;9.206;2022-07-09T02:29:11;4.10;;;3.53;;
9819;SDS011;4949;48.482;9.206;2022-07-09T02:34:11;5.00;;;3.67;;
9819;SDS011;4949;48.482;9.206;2022-07-09T02:39:12;4.70;;;3.13;;
9819;SDS011;4949;48.482;9.206;2022-07-09T02:44:12;4.70;;;3.53;;
9819;SDS011;4949;48.482;9.206;2022-07-09T02:49:13;3.97;;;3.20;;
9819;SDS011;4949;48.482;9.206;2022-07-09T02:54:13;4.60;;;3.50;;
9819;SDS011;4949;48.482;9.206;2022-07-09T02:59:13;5.30;;;3.88;;
9819;SDS011;4949;48.482;9.206;2022-07-09T03:04:17;4.30;;;3.30;;
9819;SDS011;4949;48.482;9.206;2022-07-09T03:09:17;4.77;;;3.50;;
9819;SDS011;4949;48.482;9.206;2022-07-09T03:14:20;4.03;;;3.37;;
9819;SDS011;4949;48.482;9.206;2022-07-09T03:19:20;4.20;;;3.23;;
9819;SDS011;4949;48.482;9.206;2022-07-09T03:24:20;5.18;;;3.47;;
9819;SDS011;4949;48.482;9.206;2022-07-09T03:29:23;3.73;;;3.43;;
9819;SDS011;4949;48.482;9.206;2022-07-09T03:34:26;3.97;;;3.20;;
9819;SDS011;4949;48.482;9.206;2022-07-09T03:39:26;7.13;;;3.93;;
9819;SDS011;4949;48.482;9.206;2022-07-09T03:44:27;3.83;;;3.53;;
9819;SDS011;4949;48.482;9.206;2022-07-09T03:49:27;3.73;;;3.40;;
9819;SDS011;4949;48.482;9.206;2022-07-09T03:54:27;4.20;;;3.47;;
9819;SDS011;4949;48.482;9.206;2022-07-09T03:59:28;3.33;;;3.13;;
9819;SDS011;4949;48.482;9.206;2022-07-09T04:04:28;4.40;;;4.00;;
9819;SDS011;4949;48.482;9.206;2022-07-09T04:09:28;4.17;;;3.87;;
9819;SDS011;4949;48.482;9.206;2022-07-09T04:14:29;5.60;;;3.93;;
9819;SDS011;4949;48.482;9.206;2022-07-09T04:19:32;4.23;;;3.83;;
9819;SDS011;4949;48.482;9.206;2022-07-09T04:24:32;4.47;;;4.07;;
9819;SDS011;4949;48.482;9.206;2022-07-09T04:29:35;4.50;;;4.10;;
9819;SDS011;4949;48.482;9.206;2022-07-09T04:34:35;4.70;;;3.67;;
9819;SDS011;4949;48.482;9.206;2022-07-09T04:39:36;6.60;;;4.60;;
9819;SDS011;4949;48.482;9.206;2022-07-09T04:44:39;4.73;;;4.07;;
9819;SDS011;4949;48.482;9.206;2022-07-09T04:49:39;4.47;;;4.03;;
9819;SDS011;4949;48.482;9.206;2022-07-09T04:54:39;8.50;;;4.47;;
9819;SDS011;4949;48.482;9.206;2022-07-09T04:59:45;5.83;;;4.13;;
9819;SDS011;4949;48.482;9.206;2022-07-09T05:04:45;5.00;;;4.17;;
9819;SDS011;4949;48.482;9.206;2022-07-09T05:09:45;4.60;;;4.10;;
9819;SDS011;4949;48.482;9.206;2022-07-09T05:14:46;4.47;;;3.70;;
9819;SDS011;4949;48.482;9.206;2022-07-09T05:19:46;4.20;;;3.80;;
9819;SDS011;4949;48.482;9.206;2022-07-09T05:24:47;5.00;;;4.50;;
9819;SDS011;4949;48.482;9.206;2022-07-09T05:29:47;5.80;;;3.70;;
9819;SDS011;4949;48.482;9.206;2022-07-09T05:34:50;4.77;;;4.00;;
9819;SDS011;4949;48.482;9.206;2022-07-09T05:39:50;5.30;;;3.88;;
9819;SDS011;4949;48.482;9.206;2022-07-09T05:44:51;4.13;;;3.60;;
9819;SDS011;4949;48.482;9.206;2022-07-09T05:49:51;4.50;;;3.40;;
9819;SDS011;4949;48.482;9.206;2022-07-09T05:54:51;3.80;;;3.10;;
9819;SDS011;4949;48.482;9.206;2022-07-09T05:59:52;4.20;;;3.80;;
9819;SDS011;4949;48.482;9.206;2022-07-09T06:04:57;3.50;;;3.20;;
9819;SDS011;4949;48.482;9.206;2022-07-09T06:09:57;4.20;;;3.90;;
9819;SDS011;4949;48.482;9.206;2022-07-09T06:15:00;4.50;;;3.63;;
9819;SDS011;4949;48.482;9.206;2022-07-09T06:20:01;5.70;;;3.83;;
9819;SDS011;4949;48.482;9.206;2022-07-09T06:25:01;4.70;;;3.67;;
9819;SDS011;4949;48.482;9.206;2022-07-09T06:30:04;3.80;;;3.50;;
9819;SDS011;4949;48.482;9.206;2022-07-09T06:35:05;5.77;;;3.03;;
9819;SDS011;4949;48.482;9.206;2022-07-09T06:40:06;3.60;;;3.30;;
9819;SDS011;4949;48.482;9.206;2022-07-09T06:45:07;3.80;;;3.43;;
9819;SDS011;4949;48.482;9.206;2022-07-09T06:50:08;4.17;;;3.80;;
9819;SDS011;4949;48.482;9.206;2022-07-09T06:55:09;4.10;;;3.70;;
9819;SDS011;4949;48.482;9.206;2022-07-09T07:00:12;5.00;;;3.53;;
9819;SDS011;4949;48.482;9.206;2022-07-09T07:05:13;4.03;;;3.27;;
9819;SDS011;4949;48.482;9.206;2022-07-09T07:10:16;4.20;;;3.50;;
9819;SDS011;4949;48.482;9.206;2022-07-09T07:15:18;3.37;;;3.10;;
9819;SDS011;4949;48.482;9.206;2022-07-09T07:20:18;3.70;;;3.20;;
9819;SDS011;4949;48.482;9.206;2022-07-09T07:25:22;3.30;;;3.00;;
9819;SDS011;4949;48.482;9.206;2022-07-09T07:30:23;5.20;;;3.80;;
9819;SDS011;4949;48.482;9.206;2022-07-09T07:35:23;5.27;;;3.20;;
9819;SDS011;4949;48.482;9.206;2022-07-09T07:40:24;6.37;;;3.60;;
9819;SDS011;4949;48.482;9.206;2022-07-09T07:45:25;4.70;;;3.50;;
9819;SDS011;4949;48.482;9.206;2022-07-09T07:50:25;4.33;;;2.93;;
9819;SDS011;4949;48.482;9.206;2022-07-09T07:55:26;4.23;;;2.70;;
9819;SDS011;4949;48.482;9.206;2022-07-09T08:00:29;4.97;;;3.30;;
9819;SDS011;4949;48.482;9.206;2022-07-09T08:05:29;3.23;;;2.90;;
9819;SDS011;4949;48.482;9.206;2022-07-09T08:10:29;3.33;;;2.73;;
9819;SDS011;4949;48.482;9.206;2022-07-09T08:15:32;2.93;;;2.63;;
9819;SDS011;4949;48.482;9.206;2022-07-09T08:20:32;3.17;;;2.47;;
9819;SDS011;4949;48.482;9.206;2022-07-09T08:25:35;3.50;;;2.60;;
9819;SDS011;4949;48.482;9.206;2022-07-09T08:30:35;3.10;;;2.73;;
9819;SDS011;4949;48.482;9.206;2022-07-09T08:35:37;4.30;;;3.13;;
9819;SDS011;4949;48.482;9.206;2022-07-09T08:40:37;5.22;;;2.80;;
9819;SDS011;4949;48.482;9.206;2022-07-09T08:45:37;3.13;;;2.37;;
9819;SDS011;4949;48.482;9.206;2022-07-09T08:50:38;2.63;;;2.30;;
9819;SDS011;4949;48.482;9.206;2022-07-09T08:55:40;5.27;;;2.97;;
9819;SDS011;4949;48.482;9.206;2022-07-09T09:00:41;2.77;;;2.57;;
9819;SDS011;4949;48.482;9.206;2022-07-09T09:05:44;3.80;;;2.47;;
9819;SDS011;4949;48.482;9.206;2022-07-09T09:10:46;3.00;;;2.67;;
9819;SDS011;4949;48.482;9.206;2022-07-09T09:15:46;4.43;;;2.10;;
9819;SDS011;4949;48.482;9.206;2022-07-09T09:20:46;4.38;;;2.58;;
9819;SDS011;4949;48.482;9.206;2022-07-09T09:25:47;4.00;;;2.53;;
9819;SDS011;4949;48.482;9.206;2022-07-09T09:30:47;2.30;;;2.10;;
9819;SDS011;4949;48.482;9.206;2022-07-09T09:35:48;4.27;;;2.60;;
9819;SDS011;4949;48.482;9.206;2022-07-09T09:40:48;3.37;;;2.53;;
9819;SDS011;4949;48.482;9.206;2022-07-09T09:45:48;3.43;;;2.50;;
9819;SDS011;4949;48.482;9.206;2022-07-09T09:50:52;2.70;;;2.50;;
9819;SDS011;4949;48.482;9.206;2022-07-09T09:55:53;3.47;;;2.57;;
9819;SDS011;4949;48.482;9.206;2022-07-09T10:00:56;2.80;;;2.57;;
9819;SDS011;4949;48.482;9.206;2022-07-09T10:05:59;2.97;;;2.23;;
9819;SDS011;4949;48.482;9.206;2022-07-09T10:10:59;2.50;;;2.30;;
9819;SDS011;4949;48.482;9.206;2022-07-09T10:16:00;2.83;;;2.20;;
9819;SDS011;4949;48.482;9.206;2022-07-09T10:21:02;4.53;;;2.10;;
9819;SDS011;4949;48.482;9.206;2022-07-09T10:26:03;2.40;;;2.20;;
9819;SDS011;4949;48.482;9.206;2022-07-09T10:31:06;3.27;;;2.50;;
9819;SDS011;4949;48.482;9.206;2022-07-09T10:36:10;5.50;;;2.83;;
9819;SDS011;4949;48.482;9.206;2022-07-09T10:41:20;2.33;;;2.13;;
9819;SDS011;4949;48.482;9.206;2022-07-09T10:46:21;2.67;;;2.20;;
9819;SDS011;4949;48.482;9.206;2022-07-09T10:51:22;1.97;;;1.83;;
9819;SDS011;4949;48.482;9.206;2022-07-09T10:56:25;2.50;;;2.00;;
9819;SDS011;4949;48.482;9.206;2022-07-09T11:01:25;3.97;;;3.57;;
9819;SDS011;4949;48.482;9.206;2022-07-09T11:06:26;4.70;;;2.40;;
9819;SDS011;4949;48.482;9.206;2022-07-09T11:11:27;3.20;;;2.10;;
9819;SDS011;4949;48.482;9.206;2022-07-09T11:16:28;2.00;;;1.80;;
9819;SDS011;4949;48.482;9.206;2022-07-09T11:21:32;3.00;;;2.70;;
9819;SDS011;4949;48.482;9.206;2022-07-09T11:26:32;5.90;;;5.40;;
9819;SDS011;4949;48.482;9.206;2022-07-09T11:31:33;4.53;;;2.50;;
9819;SDS011;4949;48.482;9.206;2022-07-09T11:36:36;4.63;;;2.97;;
9819;SDS011;4949;48.482;9.206;2022-07-09T11:41:44;2.57;;;2.37;;
9819;SDS011;4949;48.482;9.206;2022-07-09T11:46:45;5.00;;;4.50;;
9819;SDS011;4949;48.482;9.206;2022-07-09T11:51:48;2.03;;;1.73;;
9819;SDS011;4949;48.482;9.206;2022-07-09T11:56:48;3.37;;;2.30;;
9819;SDS011;4949;48.482;9.206;2022-07-09T12:01:48;3.60;;;2.20;;
9819;SDS011;4949;48.482;9.206;2022-07-09T12:06:52;2.15;;;1.70;;
9819;SDS011;4949;48.482;9.206;2022-07-09T12:11:52;2.77;;;1.80;;
9819;SDS011;4949;48.482;9.206;2022-07-09T12:16:58;2.60;;;2.17;;
9819;SDS011;4949;48.482;9.206;2022-07-09T12:21:59;3.20;;;2.00;;
9819;SDS011;4949;48.482;9.206;2022-07-09T12:26:59;9.53;;;5.00;;
9819;SDS011;4949;48.482;9.206;2022-07-09T12:32:00;2.80;;;2.37;;
9819;SDS011;4949;48.482;9.206;2022-07-09T12:37:02;4.17;;;2.80;;
9819;SDS011;4949;48.482;9.206;2022-07-09T12:42:03;3.30;;;2.03;;
9819;SDS011;4949;48.482;9.206;2022-07-09T12:47:03;2.67;;;2.40;;
9819;SDS011;4949;48.482;9.206;2022-07-09T12:52:04;2.33;;;2.07;;
9819;SDS011;4949;48.482;9.206;2022-07-09T12:57:04;3.23;;;2.07;;
9819;SDS011;4949;48.482;9.206;2022-07-09T13:02:05;4.60;;;4.13;;
9819;SDS011;4949;48.482;9.206;2022-07-09T13:07:06;2.30;;;2.10;;
9819;SDS011;4949;48.482;9.206;2022-07-09T13:12:06;1.93;;;1.83;;
9819;SDS011;4949;48.482;9.206;2022-07-09T13:17:07;3.17;;;2.70;;
9819;SDS011;4949;48.482;9.206;2022-07-09T13:22:07;2.57;;;1.93;;
9819;SDS011;4949;48.482;9.206;2022-07-09T13:27:08;2.20;;;2.03;;
9819;SDS011;4949;48.482;9.206;2022-07-09T13:32:10;2.43;;;2.20;;
9819;SDS011;4949;48.482;9.206;2022-07-09T13:37:11;2.00;;;1.80;;
9819;SDS011;4949;48.482;9.206;2022-07-09T13:42:12;2.97;;;2.37;;
9819;SDS011;4949;48.482;9.206;2022-07-09T13:47:17;2.40;;;2.20;;
9819;SDS011;4949;48.482;9.206;2022-07-09T13:52:18;2.50;;;2.23;;
9819;SDS011;4949;48.482;9.206;2022-07-09T13:57:18;4.37;;;2.70;;
9819;SDS011;4949;48.482;9.206;2022-07-09T14:02:18;3.33;;;3.10;;
9819;SDS011;4949;48.482;9.206;2022-07-09T14:07:21;2.90;;;2.60;;
9819;SDS011;4949;48.482;9.206;2022-07-09T14:12:22;2.90;;;2.33;;
9819;SDS011;4949;48.482;9.206;2022-07-09T14:17:25;4.10;;;2.60;;
9819;SDS011;4949;48.482;9.206;2022-07-09T14:22:26;2.10;;;2.00;;
9819;SDS011;4949;48.482;9.206;2022-07-09T14:27:27;2.00;;;1.90;;
9819;SDS011;4949;48.482;9.206;2022-07-09T14:32:27;2.50;;;2.30;;
9819;SDS011;4949;48.482;9.206;2022-07-09T14:37:28;3.10;;;2.63;;
9819;SDS011;4949;48.482;9.206;2022-07-09T14:42:30;3.47;;;3.17;;
9819;SDS011;4949;48.482;9.206;2022-07-09T14:47:31;2.43;;;2.23;;
9819;SDS011;4949;48.482;9.206;2022-07-09T14:52:33;2.87;;;2.30;;
9819;SDS011;4949;48.482;9.206;2022-07-09T14:57:34;4.13;;;2.60;;
9819;SDS011;4949;48.482;9.206;2022-07-09T15:02:34;4.20;;;2.23;;
9819;SDS011;4949;48.482;9.206;2022-07-09T15:07:34;2.50;;;2.30;;
9819;SDS011;4949;48.482;9.206;2022-07-09T15:12:35;3.90;;;2.60;;
9819;SDS011;4949;48.482;9.206;2022-07-09T15:17:36;3.87;;;3.30;;
9819;SDS011;4949;48.482;9.206;2022-07-09T15:22:37;2.60;;;2.40;;
9819;SDS011;4949;48.482;9.206;2022-07-09T15:27:37;4.70;;;2.30;;
9819;SDS011;4949;48.482;9.206;2022-07-09T15:32:37;2.90;;;2.70;;
9819;SDS011;4949;48.482;9.206;2022-07-09T15:37:38;2.97;;;2.43;;
9819;SDS011;4949;48.482;9.206;2022-07-09T15:42:39;3.00;;;2.80;;
9819;SDS011;4949;48.482;9.206;2022-07-09T15:47:40;3.70;;;2.40;;
9819;SDS011;4949;48.482;9.206;2022-07-09T15:52:41;2.93;;;2.33;;
9819;SDS011;4949;48.482;9.206;2022-07-09T15:57:44;4.30;;;3.83;;
9819;SDS011;4949;48.482;9.206;2022-07-09T16:02:44;3.37;;;3.17;;
9819;SDS011;4949;48.482;9.206;2022-07-09T16:07:45;2.40;;;2.20;;
9819;SDS011;4949;48.482;9.206;2022-07-09T16:12:45;2.90;;;2.20;;
9819;SDS011;4949;48.482;9.206;2022-07-09T16:17:55;2.90;;;2.53;;
9819;SDS011;4949;48.482;9.206;2022-07-09T16:22:58;2.60;;;2.40;;
9819;SDS011;4949;48.482;9.206;2022-07-09T16:27:59;2.20;;;2.10;;
9819;SDS011;4949;48.482;9.206;2022-07-09T16:33:02;2.80;;;2.50;;
9819;SDS011;4949;48.482;9.206;2022-07-09T16:38:02;2.30;;;2.20;;
9819;SDS011;4949;48.482;9.206;2022-07-09T16:43:04;2.57;;;2.37;;
9819;SDS011;4949;48.482;9.206;2022-07-09T16:48:05;3.17;;;2.83;;
9819;SDS011;4949;48.482;9.206;2022-07-09T16:53:06;3.70;;;3.40;;
9819;SDS011;4949;48.482;9.206;2022-07-09T16:58:06;2.70;;;2.50;;
9819;SDS011;4949;48.482;9.206;2022-07-09T17:03:07;2.97;;;2.73;;
9819;SDS011;4949;48.482;9.206;2022-07-09T17:08:10;3.57;;;3.27;;
9819;SDS011;4949;48.482;9.206;2022-07-09T17:13:11;3.03;;;2.80;;
9819;SDS011;4949;48.482;9.206;2022-07-09T17:18:11;4.00;;;3.30;;
9819;SDS011;4949;48.482;9.206;2022-07-09T17:23:12;4.50;;;4.20;;
9819;SDS011;4949;48.482;9.206;2022-07-09T17:28:12;3.97;;;3.33;;
9819;SDS011;4949;48.482;9.206;2022-07-09T17:33:12;2.97;;;2.60;;
9819;SDS011;4949;48.482;9.206;2022-07-09T17:38:13;4.10;;;3.50;;
9819;SDS011;4949;48.482;9.206;2022-07-09T17:43:13;3.33;;;3.03;;
9819;SDS011;4949;48.482;9.206;2022-07-09T17:48:14;5.73;;;2.83;;
9819;SDS011;4949;48.482;9.206;2022-07-09T17:53:17;5.33;;;4.93;;
9819;SDS011;4949;48.482;9.206;2022-07-09T17:58:18;5.00;;;4.30;;
9819;SDS011;4949;48.482;9.206;2022-07-09T18:03:18;3.40;;;3.10;;
9819;SDS011;4949;48.482;9.206;2022-07-09T18:08:19;3.60;;;3.30;;
9819;SDS011;4949;48.482;9.206;2022-07-09T18:13:22;5.43;;;4.53;;
9819;SDS011;4949;48.482;9.206;2022-07-09T18:18:22;4.17;;;3.87;;
9819;SDS011;4949;48.482;9.206;2022-07-09T18:23:24;4.53;;;4.20;;
9819;SDS011;4949;48.482;9.206;2022-07-09T18:28:25;4.63;;;3.40;;
9819;SDS011;4949;48.482;9.206;2022-07-09T18:33:29;3.40;;;3.10;;
9819;SDS011;4949;48.482;9.206;2022-07-09T18:38:29;3.07;;;2.87;;
9819;SDS011;4949;48.482;9.206;2022-07-09T18:43:30;3.47;;;3.17;;
9819;SDS011;4949;48.482;9.206;2022-07-09T18:48:30;3.40;;;3.10;;
9819;SDS011;4949;48.482;9.206;2022-07-09T18:53:33;4.63;;;4.13;;
9819;SDS011;4949;48.482;9.206;2022-07-09T18:58:36;4.30;;;3.20;;
9819;SDS011;4949;48.482;9.206;2022-07-09T19:03:36;3.23;;;3.03;;
9819;SDS011;4949;48.482;9.206;2022-07-09T19:08:39;3.23;;;2.63;;
9819;SDS011;4949;48.482;9.206;2022-07-09T19:13:39;4.00;;;3.60;;
9819;SDS011;4949;48.482;9.206;2022-07-09T19:18:40;6.57;;;4.17;;
9819;SDS011;4949;48.482;9.206;2022-07-09T19:23:43;4.40;;;3.80;;
9819;SDS011;4949;48.482;9.206;2022-07-09T19:28:46;5.30;;;3.97;;
9819;SDS011;4949;48.482;9.206;2022-07-09T19:33:49;6.20;;;4.30;;
9819;SDS011;4949;48.482;9.206;2022-07-09T19:39:04;7.13;;;4.20;;
9819;SDS011;4949;48.482;9.206;2022-07-09T19:44:05;7.30;;;4.50;;
9819;SDS011;4949;48.482;9.206;2022-07-09T19:49:07;4.27;;;3.87;;
9819;SDS011;4949;48.482;9.206;2022-07-09T19:54:07;4.87;;;4.13;;
9819;SDS011;4949;48.482;9.206;2022-07-09T19:59:08;4.77;;;4.37;;
9819;SDS011;4949;48.482;9.206;2022-07-09T20:04:10;4.70;;;4.30;;
9819;SDS011;4949;48.482;9.206;2022-07-09T20:09:10;3.70;;;3.40;;
9819;SDS011;4949;48.482;9.206;2022-07-09T20:14:13;3.80;;;3.50;;
9819;SDS011;4949;48.482;9.206;2022-07-09T20:19:14;5.33;;;4.83;;
9819;SDS011;4949;48.482;9.206;2022-07-09T20:24:14;4.95;;;4.45;;
9819;SDS011;4949;48.482;9.206;2022-07-09T20:29:16;6.67;;;4.77;;
9819;SDS011;4949;48.482;9.206;2022-07-09T20:34:16;4.27;;;3.97;;
9819;SDS011;4949;48.482;9.206;2022-07-09T20:39:18;4.70;;;4.33;;
9819;SDS011;4949;48.482;9.206;2022-07-09T20:44:19;4.87;;;4.30;;
9819;SDS011;4949;48.482;9.206;2022-07-09T20:49:19;4.40;;;4.10;;
9819;SDS011;4949;48.482;9.206;2022-07-09T20:54:19;4.13;;;3.50;;
9819;SDS011;4949;48.482;9.206;2022-07-09T20:59:20;5.40;;;4.90;;
9819;SDS011;4949;48.482;9.206;2022-07-09T21:04:20;4.93;;;4.53;;
9819;SDS011;4949;48.482;9.206;2022-07-09T21:09:20;4.30;;;3.87;;
9819;SDS011;4949;48.482;9.206;2022-07-09T21:14:23;5.23;;;4.30;;
9819;SDS011;4949;48.482;9.206;2022-07-09T21:19:26;4.60;;;4.27;;
9819;SDS011;4949;48.482;9.206;2022-07-09T21:24:26;4.10;;;3.70;;
9819;SDS011;4949;48.482;9.206;2022-07-09T21:29:28;4.53;;;3.80;;
9819;SDS011;4949;48.482;9.206;2022-07-09T21:34:29;3.40;;;3.17;;
9819;SDS011;4949;48.482;9.206;2022-07-09T21:39:30;3.80;;;3.50;;
9819;SDS011;4949;48.482;9.206;2022-07-09T21:44:30;4.10;;;3.70;;
9819;SDS011;4949;48.482;9.206;2022-07-09T21:49:33;4.53;;;3.87;;
9819;SDS011;4949;48.482;9.206;2022-07-09T21:54:33;3.77;;;3.47;;
9819;SDS011;4949;48.482;9.206;2022-07-09T21:59:34;3.40;;;3.20;;
9819;SDS011;4949;48.482;9.206;2022-07-09T22:04:34;3.93;;;3.63;;
9819;SDS011;4949;48.482;9.206;2022-07-09T22:09:34;3.70;;;3.40;;
9819;SDS011;4949;48.482;9.206;2022-07-09T22:14:35;4.00;;;3.70;;
9819;SDS011;4949;48.482;9.206;2022-07-09T22:19:35;4.30;;;3.87;;
9819;SDS011;4949;48.482;9.206;2022-07-09T22:24:35;4.03;;;3.70;;
9819;SDS011;4949;48.482;9.206;2022-07-09T22:29:36;6.13;;;3.70;;
9819;SDS011;4949;48.482;9.206;2022-07-09T22:34:36;4.20;;;3.60;;
9819;SDS011;4949;48.482;9.206;2022-07-09T22:39:37;4.90;;;3.77;;
9819;SDS011;4949;48.482;9.206;2022-07-09T22:44:37;4.13;;;3.83;;
9819;SDS011;4949;48.482;9.206;2022-07-09T22:49:37;4.40;;;4.00;;
9819;SDS011;4949;48.482;9.206;2022-07-09T22:54:38;3.80;;;3.53;;
9819;SDS011;4949;48.482;9.206;2022-07-09T22:59:38;4.23;;;3.93;;
9819;SDS011;4949;48.482;9.206;2022-07-09T23:04:39;5.60;;;3.87;;
9819;SDS011;4949;48.482;9.206;2022-07-09T23:09:40;4.67;;;4.27;;
9819;SDS011;4949;48.482;9.206;2022-07-09T23:14:40;4.20;;;3.90;;
9819;SDS011;4949;48.482;9.206;2022-07-09T23:19:40;4.97;;;3.97;;
9819;SDS011;4949;48.482;9.206;2022-07-09T23:24:41;4.20;;;3.90;;
9819;SDS011;4949;48.482;9.206;2022-07-09T23:29:41;4.50;;;4.10;;
9819;SDS011;4949;48.482;9.206;2022-07-09T23:34:43;5.10;;;4.30;;
9819;SDS011;4949;48.482;9.206;2022-07-09T23:39:44;4.70;;;4.40;;
9819;SDS011;4949;48.482;9.206;2022-07-09T23:44:44;4.20;;;3.90;;
9819;SDS011;4949;48.482;9.206;2022-07-09T23:49:45;4.40;;;3.77;;
9819;SDS011;4949;48.482;9.206;2022-07-09T23:54:45;4.63;;;3.97;;
9819;SDS011;4949;48.482;9.206;2022-07-09T23:59:45;4.23;;;3.83;;
